Impacts TAF Board
For situational awareness. Not to be used for flight planning purposes.
IDs:

KEFD - Houston/Ellington Ar, TX, US

Issued at 2000 UTC 21 May 2022
Updated at 2225 UTC 21 May 2022
Potential Impact None Slight Moderate High
Time2154Z 21/23Z 22/00Z 22/01Z 22/02Z 22/03Z 22/04Z 22/05Z 22/06Z 22/07Z 22/08Z 22/09Z 22/10Z 22/11Z>>
Type OBS PRVL PRVL PRVL PRVL PRVL PRVL PRVL PRVL PRVL PRVL PRVL PRVL PRVL
VIS 8 >6 >6 4.97 4.97 4.97 4.97 4.97 4.97 4.97 2.98 2.98 2.98 2.98
CIG 25 30 30 -- -- 3 3 3 3 3 11 11 11 11
Cover BKN BKN BKN FEW FEW BKN BKN BKN BKN BKN BKN BKN BKN BKN
FltCat MVFR MVFR MVFR MVFR MVFR LIFR LIFR LIFR LIFR LIFR IFR IFR IFR IFR
WX -- -- -- BR BR BR BR BR BR BR BR BR BR BR
WDir 120 160 160 140 140 140 140 140 140 140 VRB VRB VRB VRB
WSpd 16 12 12 15 15 9 9 9 9 9 6 6 6 6
WGst -- 18 18 -- -- -- -- -- -- -- -- -- -- --
WSHgt -- -- -- -- -- -- -- -- -- -- -- -- -- --
WSDir -- -- -- -- -- -- -- -- -- -- -- -- -- --
WSSpd -- -- -- -- -- -- -- -- -- -- -- -- -- --
Raw TAF
TAF KEFD 212000Z 2120/2302 16012G18KT 9999 BKN030 QNH2982INS
  BECMG 2201/2202 14015KT 8000 BR FEW018 QNH2986INS
  BECMG 2203/2204 14009KT 8000 BR BKN003 QNH2989INS
  BECMG 2208/2209 VRB06KT 4800 BR BKN011 QNH2992INS
  BECMG 2215/2216 VRB06KT 8000 -SHRA FEW027 QNH3002INS
  TEMPO 2215/2217 12040G50KT 8000 -TSRA FEW027CB FEW040 SCT055
  BECMG 2217/2218 VRB06KT 9999 NSW SKC QNH3000INS
  BECMG 2219/2220 VRB06KT 9999 BKN030 QNH2991INS
  BECMG 2301/2302 VRB06KT 9000 -SHRA BKN025 QNH2993INS
  TEMPO 2301/2302 05040G50KT 9000 -TSRA BKN025CB OVC040 TX33/2121Z TN26/2212Z


Raw METAR
KEFD 212154Z 12016KT 8SM BKN025 BKN042 31/25 A2987
KEFD 212054Z 13012G17KT 8SM BKN026 BKN033 31/25 A2987
KEFD 211954Z 15010G18KT 8SM BKN029 BKN037 32/25 A2989

METAR Board
Radar Display
Forecast Discussion
For situational awareness. Not to be used for flight planning purposes.